Time;durP1;ratioP1;P1;durP2;ratioP2;P2;SDS_P1;SDS_P2;PMS_P1;PMS_P2;Temp;Humidity;BMP_temperature;BMP_pressure;BME280_temperature;BME280_humidity;BME280_pressure;Samples;Min_cycle;Max_cycle;Signal;HPM_P1;HPM_P2
2022/01/01 00:02:22;;;;;;;18.27;14.68;;;;;;;9.63;90.75;101264.44;4996186;28;20088;-87
2022/01/01 00:04:50;;;;;;;15.70;13.13;;;;;;;9.63;90.93;101264.44;4980250;28;20026;-87
2022/01/01 00:07:16;;;;;;;19.25;14.63;;;;;;;9.61;90.35;101266.16;4996126;28;20113;-87
2022/01/01 00:09:57;;;;;;;18.25;15.15;;;;;;;9.65;90.27;101260.91;4995050;28;20057;-90
2022/01/01 00:12:22;;;;;;;22.02;15.20;;;;;;;9.63;90.73;101264.44;4989318;28;20022;-87
2022/01/01 00:14:47;;;;;;;21.67;16.10;;;;;;;9.65;90.94;101280.25;4992914;28;20041;-87
2022/01/01 00:17:13;;;;;;;22.42;16.27;;;;;;;9.62;90.37;101278.50;4993389;28;20028;-87
2022/01/01 00:19:39;;;;;;;22.92;17.23;;;;;;;9.63;90.57;101274.97;4992818;28;20022;-87
2022/01/01 00:22:04;;;;;;;23.77;15.70;;;;;;;9.63;90.52;101285.50;4990767;28;20029;-87
2022/01/01 00:24:29;;;;;;;22.80;16.38;;;;;;;9.63;90.86;101280.25;4975787;28;20691;-87
2022/01/01 00:26:54;;;;;;;19.75;17.17;;;;;;;9.57;90.77;101269.66;4992571;28;20030;-87
2022/01/01 00:29:20;;;;;;;18.13;16.05;;;;;;;9.68;90.82;101290.81;5008796;28;20022;-87
2022/01/01 00:31:46;;;;;;;24.45;16.90;;;;;;;9.64;90.81;101289.03;5008901;28;20391;-88
2022/01/01 00:34:12;;;;;;;20.25;16.13;;;;;;;9.67;90.26;101290.78;4981988;28;20026;-87
2022/01/01 00:36:38;;;;;;;18.73;14.93;;;;;;;9.68;90.45;101303.06;4973307;28;20033;-89
2022/01/01 00:39:04;;;;;;;21.95;16.30;;;;;;;9.67;90.93;101306.59;4999534;28;20022;-87
2022/01/01 00:41:29;;;;;;;22.40;17.08;;;;;;;9.68;90.75;101309.25;4974554;28;20061;-87
2022/01/01 00:43:54;;;;;;;19.20;15.40;;;;;;;9.68;90.53;101298.72;4976680;28;20042;-87
2022/01/01 00:46:20;;;;;;;19.58;14.45;;;;;;;9.68;90.38;101303.06;4993513;28;20106;-89
2022/01/01 00:48:45;;;;;;;19.35;15.50;;;;;;;9.68;90.74;101310.97;4991233;28;20038;-87
2022/01/01 00:51:10;;;;;;;20.63;15.25;;;;;;;9.61;90.67;101300.41;4996844;28;20082;-87
2022/01/01 00:53:36;;;;;;;18.85;15.45;;;;;;;9.65;90.53;101318.88;5000554;28;20041;-87
2022/01/01 00:56:01;;;;;;;18.80;15.57;;;;;;;9.65;90.31;101314.50;5013048;28;20026;-87
2022/01/01 00:58:26;;;;;;;17.90;14.68;;;;;;;9.68;90.68;101321.53;4994727;28;20060;-88
2022/01/01 01:00:52;;;;;;;17.00;14.80;;;;;;;9.69;90.45;101323.28;5007085;28;20018;-87
2022/01/01 01:03:17;;;;;;;18.40;15.02;;;;;;;9.66;90.38;101321.50;4993848;28;20019;-87
2022/01/01 01:05:45;;;;;;;19.38;14.52;;;;;;;9.68;90.84;101329.41;4978386;28;20492;-87
2022/01/01 01:08:12;;;;;;;16.83;14.70;;;;;;;9.64;90.52;101323.28;4980672;28;20037;-88
2022/01/01 01:10:38;;;;;;;19.80;16.13;;;;;;;9.66;90.53;101320.63;4996397;28;20543;-88
2022/01/01 01:13:04;;;;;;;18.55;14.23;;;;;;;9.70;90.43;101322.41;4986818;28;20022;-87
2022/01/01 01:15:30;;;;;;;18.55;15.05;;;;;;;9.69;90.55;101315.38;4980677;28;20061;-87
2022/01/01 01:17:57;;;;;;;18.00;14.55;;;;;;;9.71;90.53;101324.16;4983705;28;20258;-88
2022/01/01 01:20:23;;;;;;;18.80;15.15;;;;;;;9.70;90.71;101312.75;5001755;28;20029;-88
2022/01/01 01:22:48;;;;;;;21.77;14.73;;;;;;;9.60;90.50;101301.28;4996324;28;20022;-88
2022/01/01 01:25:13;;;;;;;20.08;15.32;;;;;;;9.61;90.81;101303.03;5012273;28;20023;-88
2022/01/01 01:27:39;;;;;;;17.52;14.50;;;;;;;9.60;90.61;101306.56;4992258;28;20074;-86
2022/01/01 01:30:11;;;;;;;19.17;15.27;;;;;;;9.70;90.65;101327.69;4993030;28;20026;-87
2022/01/01 01:32:36;;;;;;;17.92;15.05;;;;;;;9.67;90.44;101322.41;5012718;28;20026;-87
2022/01/01 01:35:03;;;;;;;17.48;14.75;;;;;;;9.72;90.42;101328.56;4980063;28;20014;-88
2022/01/01 01:37:28;;;;;;;17.75;14.40;;;;;;;9.61;90.45;101316.22;4996388;28;20089;-88
2022/01/01 01:39:57;;;;;;;19.90;14.82;;;;;;;9.69;90.75;101328.53;4995200;28;20022;-88
2022/01/01 01:42:25;;;;;;;17.25;14.55;;;;;;;9.72;90.28;101336.47;4979458;28;20046;-88
2022/01/01 01:44:53;;;;;;;18.13;14.40;;;;;;;9.70;90.52;101352.25;5012162;28;20105;-88
2022/01/01 01:47:27;;;;;;;17.00;14.45;;;;;;;9.69;90.40;101349.59;5012771;28;20029;-88
2022/01/01 01:49:53;;;;;;;17.35;14.85;;;;;;;9.71;90.29;101347.88;5002431;28;20022;-89
2022/01/01 01:52:19;;;;;;;18.48;14.80;;;;;;;9.68;90.41;101361.03;5000758;28;20040;-87
2022/01/01 01:54:45;;;;;;;18.45;15.13;;;;;;;9.68;90.55;101350.50;5012291;28;20030;-88
2022/01/01 01:57:11;;;;;;;20.67;14.60;;;;;;;9.71;90.49;101366.31;4976500;28;20019;-88
2022/01/01 01:59:36;;;;;;;19.00;13.93;;;;;;;9.65;90.74;101351.34;4990639;28;20042;-87
2022/01/01 02:02:01;;;;;;;21.20;14.48;;;;;;;9.68;90.45;101358.41;4971042;28;20022;-87
2022/01/01 02:04:27;;;;;;;18.80;14.18;;;;;;;9.68;90.59;101356.66;4975921;28;20045;-87
2022/01/01 02:06:52;;;;;;;17.42;14.23;;;;;;;9.70;90.71;101372.47;5008118;28;20033;-88
2022/01/01 02:09:17;;;;;;;17.15;13.73;;;;;;;9.60;90.43;101348.69;4992140;28;20053;-87
2022/01/01 02:11:43;;;;;;;18.63;14.25;;;;;;;9.65;90.52;101348.72;4992756;28;20425;-87
2022/01/01 02:19:25;;;;;;;17.33;14.52;;;;;;;9.71;90.60;101358.41;5012986;28;20080;-87
2022/01/01 02:21:53;;;;;;;16.60;14.18;;;;;;;9.71;90.54;101358.41;4980152;28;20033;-87
2022/01/01 02:24:18;;;;;;;20.83;14.57;;;;;;;9.71;90.61;101355.78;4998819;28;20500;-87
2022/01/01 02:26:44;;;;;;;18.15;13.90;;;;;;;9.73;90.53;101365.44;4994925;28;20034;-89
2022/01/01 02:29:10;;;;;;;17.35;13.88;;;;;;;9.72;90.47;101362.81;4995143;28;20034;-87
2022/01/01 02:31:35;;;;;;;19.60;14.20;;;;;;;9.70;90.46;101364.56;4976542;28;20117;-88
2022/01/01 02:34:08;;;;;;;19.00;14.60;;;;;;;9.74;90.37;101366.34;4994810;28;20041;-88
2022/01/01 02:36:36;;;;;;;18.83;14.13;;;;;;;9.70;90.16;101364.56;4995318;28;20105;-87
2022/01/01 02:39:13;;;;;;;20.08;15.63;;;;;;;9.73;90.35;101376.00;4981697;28;20108;-87
2022/01/01 02:41:38;;;;;;;19.02;13.38;;;;;;;9.69;90.57;101362.78;4991488;28;20119;-90
2022/01/01 02:44:06;;;;;;;17.15;14.27;;;;;;;9.72;90.48;101362.81;4993692;28;20503;-87
2022/01/01 02:46:32;;;;;;;15.50;13.60;;;;;;;9.72;90.48;101374.22;4978019;28;20041;-87
2022/01/01 02:48:57;;;;;;;21.13;14.25;;;;;;;9.72;90.34;101375.97;4991787;28;20235;-87
2022/01/01 02:51:23;;;;;;;16.30;13.05;;;;;;;9.74;90.55;101376.88;4994329;28;20035;-87
2022/01/01 02:53:48;;;;;;;18.00;13.40;;;;;;;9.66;90.54;101362.75;4994326;28;20038;-87
2022/01/01 02:56:13;;;;;;;16.27;14.25;;;;;;;9.74;90.29;101382.16;4991386;28;20030;-87
2022/01/01 02:58:39;;;;;;;17.88;13.30;;;;;;;9.74;90.43;101379.50;4974146;28;20428;-87
2022/01/01 03:01:05;;;;;;;16.70;13.77;;;;;;;9.69;90.25;101368.06;4994190;28;20563;-87
2022/01/01 03:03:30;;;;;;;21.05;13.63;;;;;;;9.74;90.33;101382.16;5004639;28;20038;-87
2022/01/01 03:05:55;;;;;;;17.02;14.02;;;;;;;9.71;90.48;101371.59;4990438;28;20038;-89
2022/01/01 03:08:20;;;;;;;17.67;13.27;;;;;;;9.73;90.22;101383.88;4978031;28;20110;-87
2022/01/01 03:10:47;;;;;;;16.80;13.80;;;;;;;9.72;90.27;101394.41;5009606;28;21385;-87
2022/01/01 03:13:12;;;;;;;16.08;13.48;;;;;;;9.71;90.50;101392.66;4996489;28;20491;-89
2022/01/01 03:15:38;;;;;;;17.65;12.82;;;;;;;9.68;90.55;101390.00;4997634;28;20034;-87
2022/01/01 03:18:03;;;;;;;14.32;12.52;;;;;;;9.71;90.27;101396.16;4993675;28;20053;-87
2022/01/01 03:20:28;;;;;;;15.63;12.55;;;;;;;9.73;90.19;101398.81;4971928;28;20023;-87
2022/01/01 03:22:53;;;;;;;17.15;12.45;;;;;;;9.73;90.15;101402.34;4979515;28;21203;-86
2022/01/01 03:25:19;;;;;;;15.45;12.43;;;;;;;9.72;90.41;101404.94;4999713;28;20081;-87
2022/01/01 03:27:44;;;;;;;16.17;13.10;;;;;;;9.72;90.46;101405.84;4993730;28;20054;-87
2022/01/01 03:30:10;;;;;;;14.27;11.18;;;;;;;9.73;90.48;101406.72;4993164;28;20025;-86
2022/01/01 03:32:35;;;;;;;16.60;11.85;;;;;;;9.72;90.51;101402.31;5009653;28;20022;-87
2022/01/01 03:35:00;;;;;;;17.48;11.90;;;;;;;9.70;90.25;101402.31;4993424;28;20026;-87
2022/01/01 03:37:25;;;;;;;16.23;12.80;;;;;;;9.72;90.20;101397.06;4993558;28;20046;-87
2022/01/01 03:39:51;;;;;;;13.52;11.55;;;;;;;9.72;90.24;101400.56;4977800;28;20030;-87
2022/01/01 03:42:16;;;;;;;16.90;11.65;;;;;;;9.73;90.12;101401.44;4993457;28;20057;-87
2022/01/01 03:44:41;;;;;;;14.43;11.55;;;;;;;9.74;90.10;101412.00;4993029;28;20388;-87
2022/01/01 03:47:09;;;;;;;13.98;11.15;;;;;;;9.73;90.20;101402.34;4996082;28;20026;-87
2022/01/01 03:49:38;;;;;;;15.02;11.25;;;;;;;9.74;90.54;101412.00;4993653;28;20022;-88
2022/01/01 03:52:04;;;;;;;14.10;11.70;;;;;;;9.72;90.20;101413.75;4993040;28;20034;-88
2022/01/01 03:54:29;;;;;;;14.32;11.38;;;;;;;9.73;90.09;101417.25;4988305;28;20404;-88
2022/01/01 03:56:58;;;;;;;13.02;11.32;;;;;;;9.74;90.29;101408.50;5005825;28;20018;-87
2022/01/01 03:59:25;;;;;;;14.73;11.80;;;;;;;9.73;90.21;101417.25;5006323;28;20034;-87
2022/01/01 04:01:50;;;;;;;14.85;12.13;;;;;;;9.75;90.24;101426.06;4975375;28;20030;-87
2022/01/01 04:04:15;;;;;;;14.50;11.77;;;;;;;9.73;90.19;101411.97;4993048;28;20450;-89
2022/01/01 04:06:41;;;;;;;14.50;11.35;;;;;;;9.74;90.30;101421.66;5011253;28;20018;-87
2022/01/01 04:09:06;;;;;;;17.05;12.07;;;;;;;9.73;90.21;101411.97;4992884;28;20055;-87
2022/01/01 04:11:31;;;;;;;14.57;10.32;;;;;;;9.74;90.19;101408.50;4992813;28;20036;-86
2022/01/01 04:13:57;;;;;;;14.27;11.85;;;;;;;9.72;90.52;101402.31;4993103;28;20077;-87
2022/01/01 04:16:23;;;;;;;14.75;11.38;;;;;;;9.71;90.40;101405.84;4995196;28;20034;-87
2022/01/01 04:18:48;;;;;;;13.57;10.02;;;;;;;9.71;90.47;101411.09;4995129;28;20014;-88
2022/01/01 04:21:14;;;;;;;14.27;10.95;;;;;;;9.74;90.13;101419.03;4991287;28;20015;-87
2022/01/01 04:23:40;;;;;;;13.52;10.52;;;;;;;9.71;90.10;101419.88;4974297;28;20481;-87
2022/01/01 04:26:08;;;;;;;13.25;10.63;;;;;;;9.66;90.04;101415.44;4977144;28;20041;-87
2022/01/01 04:28:35;;;;;;;13.82;10.23;;;;;;;9.67;90.17;101422.50;4974236;28;20030;-87
2022/01/01 04:31:00;;;;;;;13.73;11.00;;;;;;;9.67;90.10;101414.59;4976636;28;20089;-88
2022/01/01 04:33:25;;;;;;;15.70;10.65;;;;;;;9.67;89.94;101420.72;4973488;28;20030;-87
2022/01/01 04:35:51;;;;;;;13.40;10.82;;;;;;;9.72;90.13;101432.19;4992240;28;20436;-88
2022/01/01 04:38:36;;;;;;;13.57;10.73;;;;;;;9.75;90.11;101431.31;4989367;28;20063;-88
2022/01/01 04:41:03;;;;;;;14.40;10.68;;;;;;;9.74;90.29;101429.56;4995376;28;20022;-87
2022/01/01 04:43:29;;;;;;;11.45;9.80;;;;;;;9.68;90.27;101429.50;5014203;28;20032;-87
2022/01/01 04:45:54;;;;;;;12.07;10.13;;;;;;;9.68;90.33;101429.50;4992626;28;20022;-91
2022/01/01 04:48:19;;;;;;;13.10;10.35;;;;;;;9.73;89.99;101438.31;4989774;28;20072;-88
2022/01/01 04:50:44;;;;;;;15.05;10.15;;;;;;;9.66;90.38;101436.50;4974238;28;20031;-87
2022/01/01 04:53:15;;;;;;;14.10;10.60;;;;;;;9.71;90.17;101437.44;4992474;28;20374;-87
2022/01/01 04:55:41;;;;;;;11.25;9.65;;;;;;;9.69;90.23;101442.69;4993249;28;20117;-87
2022/01/01 04:58:06;;;;;;;19.27;10.35;;;;;;;9.71;90.09;101446.22;4992641;28;20510;-87
2022/01/01 05:00:31;;;;;;;13.25;9.88;;;;;;;9.75;90.08;101444.50;5006205;28;20026;-87
2022/01/01 05:02:57;;;;;;;11.63;9.43;;;;;;;9.74;90.22;101446.22;5008404;28;20708;-87
2022/01/01 05:05:22;;;;;;;14.00;10.25;;;;;;;9.73;90.08;101430.41;4992274;28;20038;-88
2022/01/01 05:07:47;;;;;;;11.52;9.65;;;;;;;9.72;89.92;101432.19;4992007;28;20030;-87
2022/01/01 05:10:13;;;;;;;13.43;9.88;;;;;;;9.71;90.28;101440.06;4992185;28;20491;-87
2022/01/01 05:12:38;;;;;;;12.02;10.55;;;;;;;9.73;90.00;101446.22;4991329;28;20027;-88
2022/01/01 05:15:04;;;;;;;14.02;10.10;;;;;;;9.71;90.08;101440.06;4992124;28;20018;-87
2022/01/01 05:17:29;;;;;;;10.80;9.15;;;;;;;9.72;90.04;101447.09;4975795;28;20389;-87
2022/01/01 05:19:54;;;;;;;12.27;9.60;;;;;;;9.73;89.86;101446.22;4975633;28;20019;-87
2022/01/01 05:22:20;;;;;;;10.75;9.65;;;;;;;9.71;90.06;101445.34;5007225;28;20034;-87
2022/01/01 05:24:45;;;;;;;12.07;9.45;;;;;;;9.73;90.00;101451.50;4994343;28;20108;-88
2022/01/01 05:27:10;;;;;;;12.98;9.30;;;;;;;9.66;89.92;101436.50;4992307;28;20523;-87
2022/01/01 05:29:35;;;;;;;13.77;9.63;;;;;;;9.75;90.20;101462.94;4992185;28;20053;-87
2022/01/01 05:32:01;;;;;;;11.02;9.38;;;;;;;9.73;90.10;101460.28;4975507;28;20018;-87
2022/01/01 05:34:26;;;;;;;10.70;9.50;;;;;;;9.65;90.24;101437.38;5011516;28;20808;-87
2022/01/01 05:36:51;;;;;;;11.35;9.15;;;;;;;9.73;90.10;101454.13;5012387;28;20061;-87
2022/01/01 05:39:16;;;;;;;12.25;9.18;;;;;;;9.73;89.91;101451.50;5015361;28;20068;-87
2022/01/01 05:41:42;;;;;;;13.15;9.05;;;;;;;9.72;90.15;101452.38;5001442;28;20036;-87
2022/01/01 05:44:07;;;;;;;11.27;9.25;;;;;;;9.63;90.04;101438.28;5012841;28;20030;-87
2022/01/01 05:46:32;;;;;;;11.48;9.52;;;;;;;9.74;90.27;101455.91;4990749;28;20706;-87
2022/01/01 05:48:58;;;;;;;9.38;8.45;;;;;;;9.74;89.92;101456.78;4980277;28;20041;-89
2022/01/01 05:51:23;;;;;;;10.55;8.70;;;;;;;9.72;89.98;101450.63;4996206;28;20038;-87
2022/01/01 05:53:49;;;;;;;11.90;9.35;;;;;;;9.73;90.02;101456.75;5011165;28;20048;-87
2022/01/01 05:56:14;;;;;;;11.68;8.75;;;;;;;9.73;89.86;101469.94;4996326;28;20098;-87
2022/01/01 05:58:39;;;;;;;9.98;8.52;;;;;;;9.65;90.10;101459.34;4979619;28;20018;-87
2022/01/01 06:01:05;;;;;;;10.10;8.70;;;;;;;9.71;89.84;101482.22;5012105;28;20035;-87
2022/01/01 06:03:31;;;;;;;10.20;8.70;;;;;;;9.73;90.12;101480.47;4995749;28;20507;-87
2022/01/01 06:05:56;;;;;;;9.93;8.25;;;;;;;9.74;89.93;101487.53;4995890;28;20041;-88
2022/01/01 06:08:23;;;;;;;9.77;8.00;;;;;;;9.73;90.06;101489.25;4976572;28;20117;-87
2022/01/01 06:10:48;;;;;;;11.27;8.13;;;;;;;9.73;90.08;101485.72;4983457;28;20108;-87
2022/01/01 06:13:13;;;;;;;10.45;8.02;;;;;;;9.67;89.88;101472.53;4995579;28;20395;-88
2022/01/01 06:15:41;;;;;;;9.52;8.32;;;;;;;9.73;89.76;101488.38;4992394;28;20026;-88
2022/01/01 06:18:07;;;;;;;10.18;8.13;;;;;;;9.71;89.97;101493.63;4971910;28;20025;-87
2022/01/01 06:20:32;;;;;;;9.60;8.10;;;;;;;9.72;89.55;101487.50;5002804;28;20042;-87
2022/01/01 06:22:57;;;;;;;9.55;8.07;;;;;;;9.66;90.06;101478.66;4995492;28;20024;-88
2022/01/01 06:25:23;;;;;;;9.27;8.02;;;;;;;9.74;90.06;101500.69;4995907;28;20088;-87
2022/01/01 06:27:48;;;;;;;8.45;7.47;;;;;;;9.75;89.93;101505.09;4979591;28;20030;-87
2022/01/01 06:30:13;;;;;;;9.45;8.23;;;;;;;9.68;90.15;101493.63;4995617;28;20022;-88
2022/01/01 06:32:39;;;;;;;11.48;8.75;;;;;;;9.73;90.16;101498.91;4995362;28;20030;-87
2022/01/01 06:35:04;;;;;;;11.45;8.10;;;;;;;9.74;89.79;101511.22;5016027;28;20034;-88
2022/01/01 06:37:30;;;;;;;9.30;7.55;;;;;;;9.72;89.65;101502.41;4979173;28;20109;-88
2022/01/01 06:39:55;;;;;;;9.13;8.20;;;;;;;9.73;89.82;101512.97;4995686;28;20030;-87
2022/01/01 06:42:20;;;;;;;9.55;7.70;;;;;;;9.74;89.96;101517.38;4992189;28;20023;-87
2022/01/01 06:44:46;;;;;;;8.55;7.50;;;;;;;9.70;89.77;101509.44;4993332;28;20058;-89
2022/01/01 06:47:11;;;;;;;8.32;7.50;;;;;;;9.73;89.95;101512.06;4979371;28;20385;-87
2022/01/01 06:49:37;;;;;;;8.73;7.28;;;;;;;9.73;89.96;101517.34;4988739;28;20030;-88
2022/01/01 06:52:03;;;;;;;9.75;7.57;;;;;;;9.75;89.76;101520.88;4995127;28;20102;-87
2022/01/01 06:54:29;;;;;;;7.72;6.93;;;;;;;9.75;90.11;101521.78;4979158;28;20476;-87
2022/01/01 06:56:54;;;;;;;9.70;7.78;;;;;;;9.74;89.82;101520.00;4994924;28;20018;-87
2022/01/01 06:59:20;;;;;;;8.57;7.00;;;;;;;9.75;89.91;101524.41;4995095;28;20029;-87
2022/01/01 07:01:45;;;;;;;11.63;7.53;;;;;;;9.71;89.58;101524.38;4979134;28;20022;-88
2022/01/01 07:04:10;;;;;;;10.10;8.13;;;;;;;9.74;89.89;101530.53;4987935;28;20022;-89
2022/01/01 07:06:37;;;;;;;9.18;7.28;;;;;;;9.73;89.97;101533.16;4991972;28;20030;-87
2022/01/01 07:09:03;;;;;;;10.25;7.65;;;;;;;9.73;89.70;101533.16;4995150;28;20025;-88
2022/01/01 07:11:28;;;;;;;9.75;7.18;;;;;;;9.65;89.84;101529.56;4978757;28;20116;-87
2022/01/01 07:13:53;;;;;;;9.63;6.78;;;;;;;9.71;89.74;101535.78;4988677;28;20057;-87
2022/01/01 07:16:20;;;;;;;8.60;7.57;;;;;;;9.72;89.76;101537.56;4995349;28;20030;-87
2022/01/01 07:18:45;;;;;;;9.93;7.93;;;;;;;9.70;89.75;101539.28;4978857;28;20026;-88
2022/01/01 07:21:10;;;;;;;8.10;7.35;;;;;;;9.71;89.78;101546.31;4994879;28;20022;-87
2022/01/01 07:23:36;;;;;;;10.40;6.60;;;;;;;9.67;89.64;101544.53;4994669;28;20038;-87
2022/01/01 07:26:01;;;;;;;10.15;7.60;;;;;;;9.74;89.90;101556.00;4994767;28;20036;-87
2022/01/01 07:28:26;;;;;;;8.35;6.90;;;;;;;9.72;89.83;101557.75;4991293;28;20038;-87
2022/01/01 07:30:52;;;;;;;8.52;7.45;;;;;;;9.73;89.53;101564.75;5009019;28;20041;-88
2022/01/01 07:33:17;;;;;;;7.25;6.55;;;;;;;9.74;89.61;101569.19;5010268;28;20416;-87
2022/01/01 07:35:42;;;;;;;8.95;7.60;;;;;;;9.73;89.83;101570.03;4994524;28;20083;-87
2022/01/01 07:38:08;;;;;;;8.02;7.13;;;;;;;9.72;89.88;101568.28;4974627;28;20469;-89
2022/01/01 07:40:39;;;;;;;7.55;6.80;;;;;;;9.74;89.81;101577.94;4960190;28;20022;-89
2022/01/01 07:43:15;;;;;;;7.72;6.90;;;;;;;9.75;89.65;101573.56;4980192;28;20033;-89
2022/01/01 07:45:41;;;;;;;8.55;6.80;;;;;;;9.73;89.83;101578.84;4978685;28;20436;-89
2022/01/01 07:48:09;;;;;;;8.93;7.05;;;;;;;9.72;89.88;101573.53;4978064;28;20031;-89
2022/01/01 07:50:35;;;;;;;9.25;7.78;;;;;;;9.56;89.52;101547.06;4977981;28;20120;-88
2022/01/01 07:53:00;;;;;;;7.50;6.80;;;;;;;9.69;89.88;101568.25;4979087;28;20037;-88
2022/01/01 07:55:26;;;;;;;7.47;6.68;;;;;;;9.60;89.75;101569.03;4977642;28;20026;-88
2022/01/01 07:57:51;;;;;;;7.13;6.43;;;;;;;9.74;89.73;101592.91;4974243;28;20026;-88
2022/01/01 08:00:17;;;;;;;8.05;6.80;;;;;;;9.67;89.48;101591.94;4978424;28;20033;-87
2022/01/01 08:02:43;;;;;;;8.32;7.00;;;;;;;9.69;89.62;101600.75;5005761;28;20039;-86
2022/01/01 08:05:09;;;;;;;9.02;7.28;;;;;;;9.75;89.56;101613.09;4979184;28;20025;-86
2022/01/01 08:07:34;;;;;;;7.07;6.38;;;;;;;9.75;89.75;101616.63;4978567;28;20027;-87
2022/01/01 08:10:00;;;;;;;8.63;6.85;;;;;;;9.75;89.75;101610.47;4994136;28;20026;-87
2022/01/01 08:12:25;;;;;;;8.90;7.10;;;;;;;9.74;89.68;101609.56;5013567;28;20477;-89
2022/01/01 08:14:51;;;;;;;9.15;7.10;;;;;;;9.73;89.86;101607.81;4994513;28;20022;-87
2022/01/01 08:17:16;;;;;;;7.97;6.55;;;;;;;9.67;89.64;101602.47;4993153;28;20034;-87
2022/01/01 08:19:42;;;;;;;7.70;6.70;;;;;;;9.73;89.58;101617.44;5007319;28;20022;-87
2022/01/01 08:22:07;;;;;;;8.65;6.95;;;;;;;9.73;89.36;101622.72;4982912;28;20022;-88
2022/01/01 08:24:33;;;;;;;7.10;6.40;;;;;;;9.73;89.75;101617.44;4995352;28;20026;-88
2022/01/01 08:26:58;;;;;;;9.60;7.43;;;;;;;9.63;89.58;101606.84;4989226;28;20037;-87
2022/01/01 08:29:24;;;;;;;7.10;6.40;;;;;;;9.69;89.77;101621.81;4989742;28;20048;-88
2022/01/01 08:31:51;;;;;;;7.90;6.90;;;;;;;9.59;89.49;101599.78;5008026;28;20054;-87
2022/01/01 08:34:17;;;;;;;8.70;6.95;;;;;;;9.74;89.52;101640.31;4992170;28;20022;-87
2022/01/01 08:36:42;;;;;;;8.35;6.78;;;;;;;9.75;89.53;101636.81;4971831;28;20029;-88
2022/01/01 08:39:08;;;;;;;7.72;6.68;;;;;;;9.74;89.40;101646.44;4991882;28;20022;-87
2022/01/01 08:41:37;;;;;;;8.00;6.63;;;;;;;9.74;89.13;101641.19;4973980;28;20030;-87
2022/01/01 08:44:02;;;;;;;9.15;7.05;;;;;;;9.73;89.54;101633.25;4966009;28;20023;-87
2022/01/01 08:46:27;;;;;;;9.75;7.25;;;;;;;9.73;88.99;101649.06;4991802;28;20064;-87
2022/01/01 08:48:53;;;;;;;9.30;7.80;;;;;;;9.71;89.49;101646.41;4991756;28;20447;-87
2022/01/01 08:51:20;;;;;;;8.98;7.15;;;;;;;9.73;89.28;101649.97;4991650;28;20029;-88
2022/01/01 08:53:46;;;;;;;9.93;7.85;;;;;;;9.70;89.39;101651.69;4991535;28;20027;-88
2022/01/01 08:56:12;;;;;;;9.77;8.80;;;;;;;9.74;89.40;101666.66;5008281;28;20026;-88
2022/01/01 08:58:39;;;;;;;9.85;7.32;;;;;;;9.73;89.55;101670.13;4991909;28;20022;-88
2022/01/01 09:01:04;;;;;;;8.55;7.10;;;;;;;9.66;89.33;101656.03;4988103;28;20037;-88
2022/01/01 09:03:30;;;;;;;9.52;7.85;;;;;;;9.74;89.60;101662.25;4989902;28;20030;-88
2022/01/01 09:05:55;;;;;;;9.32;7.95;;;;;;;9.73;89.66;101662.25;4993752;28;20014;-88
2022/01/01 09:08:21;;;;;;;8.70;6.72;;;;;;;9.74;89.61;101661.41;4993904;28;20093;-87
2022/01/01 09:10:46;;;;;;;10.65;7.65;;;;;;;9.73;89.21;101659.59;4995759;28;20100;-88
2022/01/01 09:13:11;;;;;;;10.65;8.65;;;;;;;9.71;89.58;101653.44;4995781;28;20034;-88
2022/01/01 09:15:37;;;;;;;8.70;7.80;;;;;;;9.74;89.36;101671.94;5012157;28;20038;-87
2022/01/01 09:18:14;;;;;;;7.82;7.13;;;;;;;9.71;89.18;101661.34;4995771;28;20026;-88
2022/01/01 09:20:40;;;;;;;7.78;7.07;;;;;;;9.72;89.37;101671.91;4995184;28;20030;-90
2022/01/01 09:23:19;;;;;;;9.02;7.13;;;;;;;9.72;89.60;101681.56;4991619;28;20460;-90
2022/01/01 09:25:44;;;;;;;8.93;6.72;;;;;;;9.72;89.54;101677.19;4980277;28;20041;-87
2022/01/01 09:28:13;;;;;;;9.68;7.15;;;;;;;9.70;89.52;101681.53;5010992;28;20022;-88
2022/01/01 09:30:38;;;;;;;10.73;6.63;;;;;;;9.71;89.54;101692.97;5009464;28;20054;-87
2022/01/01 09:33:20;;;;;;;8.07;7.20;;;;;;;9.74;89.47;101688.59;4997244;28;20092;-87
2022/01/01 09:35:45;;;;;;;10.50;8.00;;;;;;;9.74;89.22;101693.88;5001685;28;20103;-87
2022/01/01 09:38:11;;;;;;;8.65;6.82;;;;;;;9.74;89.51;101693.88;4977197;28;20034;-88
2022/01/01 09:40:37;;;;;;;8.93;7.55;;;;;;;9.74;89.19;101693.00;5009377;28;20412;-88
2022/01/01 09:46:41;;;;;;;8.05;7.15;;;;;;;9.74;89.32;101683.34;4998440;28;20168;-86
2022/01/01 09:49:06;;;;;;;10.98;7.93;;;;;;;9.72;89.46;101685.09;4974053;28;20041;-87
2022/01/01 09:51:31;;;;;;;8.25;6.88;;;;;;;9.74;89.55;101693.00;4994906;28;20018;-88
2022/01/01 09:53:57;;;;;;;10.25;7.18;;;;;;;9.73;89.53;101691.22;4991700;28;20041;-88
2022/01/01 09:56:22;;;;;;;9.07;7.85;;;;;;;9.74;89.36;101693.00;4993648;28;20435;-88
2022/01/01 09:58:47;;;;;;;10.98;7.35;;;;;;;9.74;89.30;101699.13;4995446;28;20021;-88
2022/01/01 10:01:14;;;;;;;9.30;7.78;;;;;;;9.74;89.34;101706.19;4992449;28;20036;-89
2022/01/01 10:03:45;;;;;;;11.75;8.10;;;;;;;9.68;89.53;101698.19;4999408;28;20033;-88
2022/01/01 10:06:14;;;;;;;8.80;7.90;;;;;;;9.75;89.52;101715.84;4977779;28;20026;-88
2022/01/01 10:08:45;;;;;;;9.50;8.05;;;;;;;9.74;89.34;101714.09;4979876;28;20029;-89
2022/01/01 10:11:11;;;;;;;10.93;7.63;;;;;;;9.76;89.63;101720.22;4994091;28;20165;-87
2022/01/01 10:13:38;;;;;;;11.73;7.25;;;;;;;9.73;89.66;101714.94;4974898;28;20124;-87
2022/01/01 10:16:06;;;;;;;9.77;7.78;;;;;;;9.70;89.54;101707.00;4970359;28;20113;-88
2022/01/01 10:18:36;;;;;;;10.32;8.30;;;;;;;9.75;89.42;101719.38;4992115;28;20018;-88
2022/01/01 10:21:16;;;;;;;11.65;8.20;;;;;;;9.76;89.63;101717.59;4977895;28;20384;-88
2022/01/01 10:23:43;;;;;;;10.07;8.38;;;;;;;9.76;89.33;101712.34;4974960;28;20027;-88
2022/01/01 10:28:54;;;;;;;9.70;7.63;;;;;;;9.76;89.61;101696.53;4992250;28;20029;-88
2022/01/01 10:31:25;;;;;;;9.63;8.27;;;;;;;9.67;89.64;101681.50;4977422;28;20022;-92
2022/01/01 10:33:51;;;;;;;8.50;7.60;;;;;;;9.72;89.49;101692.09;4997788;28;20038;-90
2022/01/01 10:36:19;;;;;;;11.35;8.50;;;;;;;9.70;89.66;101686.81;4979982;28;20022;-85
2022/01/01 10:38:45;;;;;;;12.63;8.82;;;;;;;9.74;89.57;101699.13;4975265;28;20614;-86
2022/01/01 10:41:13;;;;;;;10.80;8.10;;;;;;;9.73;89.43;101691.22;4991372;28;20018;-86
2022/01/01 10:43:40;;;;;;;9.95;8.55;;;;;;;9.77;89.48;101697.41;4989826;28;20026;-87
2022/01/01 10:46:06;;;;;;;11.48;8.10;;;;;;;9.77;89.57;101702.69;4993460;28;20014;-87
2022/01/01 10:50:59;;;;;;;10.00;8.02;;;;;;;9.74;89.65;101704.41;5009959;28;20117;-87
2022/01/01 10:53:26;;;;;;;9.93;8.38;;;;;;;9.77;89.42;101702.69;4993398;28;20440;-87
2022/01/01 10:55:58;;;;;;;10.18;8.52;;;;;;;9.78;89.58;101715.00;4975851;28;20110;-86
2022/01/01 10:58:28;;;;;;;10.40;8.30;;;;;;;9.85;89.32;101698.38;4992178;28;20149;-86
2022/01/01 11:01:04;;;;;;;9.82;7.50;;;;;;;9.82;89.51;101696.59;5006362;28;20068;-86
2022/01/01 11:03:35;;;;;;;11.60;7.35;;;;;;;9.79;89.66;101703.56;4973404;28;20018;-86
2022/01/01 11:06:15;;;;;;;10.48;7.72;;;;;;;9.80;89.61;101706.22;4976047;28;20080;-87
2022/01/01 11:08:42;;;;;;;9.52;7.15;;;;;;;9.76;89.64;101704.44;4971284;28;20085;-86
2022/01/01 11:11:08;;;;;;;13.35;9.05;;;;;;;9.75;89.44;101703.56;4976117;28;20072;-86
2022/01/01 11:13:34;;;;;;;14.68;8.65;;;;;;;9.81;89.84;101708.00;4975190;28;20030;-85
2022/01/01 11:16:22;;;;;;;13.95;7.88;;;;;;;9.82;89.77;101722.06;5009098;28;20396;-86
2022/01/01 11:18:47;;;;;;;12.10;8.13;;;;;;;9.81;89.69;101715.03;4978025;28;20034;-87
2022/01/01 11:21:13;;;;;;;14.32;8.45;;;;;;;9.80;89.30;101719.41;4976723;28;20396;-87
2022/01/01 11:23:40;;;;;;;14.00;8.32;;;;;;;9.79;89.40;101717.63;4992356;28;20496;-87
2022/01/01 11:26:06;;;;;;;10.93;7.55;;;;;;;9.78;89.42;101715.00;4993183;28;20018;-86
2022/01/01 11:28:31;;;;;;;12.73;8.50;;;;;;;9.71;89.31;101703.50;4992108;28;20040;-87
2022/01/01 11:30:56;;;;;;;12.40;7.95;;;;;;;9.80;89.29;101714.13;4991676;28;20030;-87
2022/01/01 11:33:52;;;;;;;14.23;8.80;;;;;;;9.81;89.61;101710.66;4989585;28;20022;-87
2022/01/01 11:36:20;;;;;;;10.45;7.75;;;;;;;9.79;89.30;101712.38;4973563;28;20057;-88